Scottsboro, AL

11:26 PM CST on March 04, 2015 (GMT -0600)
Fort Payne | Change Station
CLOSE
Current Station
Airport
Location: Fort Payne,
Elevation: 876 ft
Nearby Weather Stations
Active Advisory: Winter Storm Warning

Elev 876 ft 34.47 °N, 85.72 °W | Updated 11 minutes ago

Overcast
Overcast
46 °F
Feels Like 44 °F
N
6
Wind Variable Wind from NNE

Today
High -- | Low -- °F
--% Chance of Precip.
Yesterday
High -- | Low -- °F
Precip. -- in
6:09 AM 5:42 PM
Full, 100% visible
Pressure 29.94 in
Visibility 10.0 miles
Clouds Overcast 900 ft
Windchill 44 °F
Dew Point 43 °F
Humidity 87%
Rainfall 0.03 in
Snow Depth Not available.
UV 0 out of 12
Pollen 1.70 out of 12
Air Quality Not available.
Flu Activity Not available.
METAR K4A9 050515Z AUTO 02005KT 10SM OVC009 08/06 A2994 RMK AO2

More Conditions Fewer Conditions

Pressure 29.94 in
Visibility 10.0 miles
Clouds Overcast 900 ft
Windchill 44 °F
Dew Point 43 °F
Humidity 87%
Rainfall 0.03 in
Snow Depth Not available.
UV 0 out of 12
Pollen 1.70 out of 12
Air Quality Not available.
Flu Activity Not available.
METAR K4A9 050515Z AUTO 02005KT 10SM OVC009 08/06 A2994 RMK AO2

More Conditions Fewer Conditions

10-Day Weather Forecast

Almanac

Astronomy

Mar. 04, 2015 Rise Set
Actual Time
Civil Twilight
Nautical Twilight
Astronomical Twilight
Moon
Length of Visible Light
Length of Day
Tomorrow will be .
, % of the Moon is Illuminated

Today's Extremes

State Highs State Lows

Community

WunderPhotos

Upload Photos

1,802,686 photos uploaded!

WunderBlogs® & News

Nearby

Air Quality

  Air Quality AQ Index Pollutant
Not available.

Snow Depth

Station Depth Elevation

Earthquake Activity

City Distance Mag. Time & Date
Minimum magnitude displayed is 2.5.

Coastal Water Temperatures

Place Temperature

Nearby Weather Stations

Winter Storm Warning
Statement as of 8:45 PM CST on March 04, 2015

... Winter Storm Warning remains in effect from 3 am to 3 PM CST
Thursday...

* timing and areas affected... rain is expected to transition to
freezing rain between 3am and 6 am Thursday morning and then to
sleet during the morning across much of the Tennessee
Valley... including Lawrence... Limestone... Madison... Morgan...
DeKalb... Jackson... Marshall and Cullman counties in northern
Alabama.

* Accumulations... ice accumulations between one quarter to three
tenths of an inch and sleet accumulations around a half an
inch area likely.

* Impacts... widespread hazardous traveling conditions are likely
across northern Alabama due to the ice and sleet accumulations on
roads and bridges.

Precautionary/preparedness actions...

A Winter Storm Warning means significant amounts of ice... sleet...
and snow are expected or occurring. Strong winds are also
possible. This will make travel very hazardous or impossible.